Time;durP1;ratioP1;P1;durP2;ratioP2;P2;SDS_P1;SDS_P2;PMS_P1;PMS_P2;Temp;Humidity;BMP_temperature;BMP_pressure;BME280_temperature;BME280_humidity;BME280_pressure;Samples;Min_cycle;Max_cycle;Signal;HPM_P1;HPM_P2
2022/11/26 00:00:17;;;;;;;39.75;12.10;;;5.40;99.90;;;;;;5022357;28;20075;-92
2022/11/26 00:02:43;;;;;;;37.97;13.15;;;5.40;99.90;;;;;;5026125;28;20080;-93
2022/11/26 00:05:14;;;;;;;36.67;13.02;;;5.40;99.90;;;;;;5026252;28;20044;-93
2022/11/26 00:07:42;;;;;;;28.27;11.65;;;5.40;99.90;;;;;;5022943;28;20059;-92
2022/11/26 00:10:20;;;;;;;33.25;12.07;;;5.40;99.90;;;;;;5022996;28;20088;-93
2022/11/26 00:12:46;;;;;;;36.00;12.43;;;5.40;99.90;;;;;;5023371;28;20036;-93
2022/11/26 00:15:25;;;;;;;33.15;11.60;;;5.40;99.90;;;;;;5023069;28;20029;-92
2022/11/26 00:17:51;;;;;;;34.42;12.18;;;5.40;99.90;;;;;;5024227;28;20037;-92
2022/11/26 00:20:19;;;;;;;35.25;11.80;;;5.40;99.90;;;;;;5025695;28;20064;-93
2022/11/26 00:22:49;;;;;;;32.85;12.15;;;5.40;99.90;;;;;;5020063;28;20148;-92
2022/11/26 00:25:17;;;;;;;37.15;12.02;;;5.30;99.90;;;;;;5028202;28;20092;-92
2022/11/26 00:27:43;;;;;;;28.70;11.80;;;5.40;99.90;;;;;;5042127;28;20036;-92
2022/11/26 00:30:24;;;;;;;30.83;11.98;;;5.30;99.90;;;;;;5028596;28;20691;-92
2022/11/26 00:32:50;;;;;;;37.90;12.35;;;5.30;99.90;;;;;;5018999;28;20028;-93
2022/11/26 00:35:16;;;;;;;34.70;12.82;;;5.30;99.90;;;;;;5027164;28;20025;-92
2022/11/26 00:37:45;;;;;;;33.95;12.55;;;5.30;99.90;;;;;;5026631;28;20049;-92
2022/11/26 00:40:22;;;;;;;36.15;12.48;;;5.20;99.90;;;;;;4999235;28;20126;-92
2022/11/26 00:42:48;;;;;;;44.10;12.32;;;5.20;99.90;;;;;;5001943;28;20056;-91
2022/11/26 00:45:20;;;;;;;33.38;11.65;;;5.20;99.90;;;;;;5004132;28;20021;-93
2022/11/26 00:47:46;;;;;;;35.30;11.38;;;5.10;99.90;;;;;;5030645;28;20025;-91
2022/11/26 00:50:18;;;;;;;35.92;12.20;;;5.10;99.90;;;;;;5004846;28;20690;-92
2022/11/26 00:52:45;;;;;;;31.27;11.63;;;5.10;99.90;;;;;;5033231;28;20101;-92
2022/11/26 00:55:30;;;;;;;32.88;12.02;;;5.00;99.90;;;;;;5024358;28;20041;-92
2022/11/26 00:57:56;;;;;;;33.55;11.50;;;5.00;99.90;;;;;;5032913;28;20030;-92
2022/11/26 01:00:25;;;;;;;28.58;12.55;;;5.00;99.90;;;;;;5012400;28;20124;-91
2022/11/26 01:02:51;;;;;;;33.45;11.00;;;5.00;99.90;;;;;;5008908;28;20024;-92
2022/11/26 01:05:18;;;;;;;39.17;12.20;;;5.00;99.90;;;;;;5007152;28;20056;-92
2022/11/26 01:07:44;;;;;;;28.00;11.27;;;4.90;99.90;;;;;;5029075;28;20030;-92
2022/11/26 01:10:22;;;;;;;39.20;12.02;;;4.90;99.90;;;;;;5008219;28;20029;-92
2022/11/26 01:12:48;;;;;;;37.53;11.48;;;4.90;99.90;;;;;;5006194;28;20117;-92
2022/11/26 01:15:16;;;;;;;39.80;12.23;;;4.90;99.90;;;;;;5032231;28;20112;-91
2022/11/26 01:17:42;;;;;;;30.95;12.75;;;4.90;99.90;;;;;;5012067;28;20039;-92
2022/11/26 01:20:22;;;;;;;34.83;11.98;;;4.80;99.90;;;;;;5009333;28;20594;-92
2022/11/26 01:22:49;;;;;;;37.00;10.95;;;4.90;99.90;;;;;;5007785;28;20494;-92
2022/11/26 01:25:15;;;;;;;34.13;13.07;;;4.90;99.90;;;;;;5000493;28;20022;-92
2022/11/26 01:27:41;;;;;;;33.60;11.88;;;4.80;99.90;;;;;;5020257;28;20034;-92
2022/11/26 01:30:28;;;;;;;34.35;11.80;;;4.90;99.90;;;;;;5004954;28;20411;-92
2022/11/26 01:32:54;;;;;;;42.30;12.88;;;4.90;99.90;;;;;;5006086;28;20482;-92
2022/11/26 01:35:20;;;;;;;33.40;10.98;;;4.80;99.90;;;;;;5002158;28;20078;-92
2022/11/26 01:37:47;;;;;;;34.03;10.73;;;4.80;99.90;;;;;;4999880;28;20123;-92
2022/11/26 01:40:25;;;;;;;30.90;11.75;;;4.80;99.90;;;;;;5039231;28;20026;-92
2022/11/26 01:42:56;;;;;;;34.75;12.18;;;4.80;99.90;;;;;;5021732;28;20025;-92
2022/11/26 01:45:22;;;;;;;35.73;11.67;;;4.80;99.90;;;;;;5027396;28;20524;-91
2022/11/26 01:47:48;;;;;;;31.63;11.27;;;4.80;99.90;;;;;;5033053;28;20033;-92
2022/11/26 01:50:46;;;;;;;34.97;12.15;;;4.70;99.90;;;;;;5031367;28;20127;-92
2022/11/26 01:53:30;;;;;;;29.85;12.15;;;4.70;99.90;;;;;;5037417;28;20024;-92
2022/11/26 01:56:13;;;;;;;32.20;12.50;;;4.70;99.90;;;;;;5044213;28;20131;-92
2022/11/26 01:58:49;;;;;;;40.22;12.70;;;4.70;99.90;;;;;;5044457;28;20017;-92
2022/11/26 02:01:16;;;;;;;33.65;11.88;;;4.60;99.90;;;;;;5037793;28;20021;-92
2022/11/26 02:04:12;;;;;;;36.53;13.35;;;4.60;99.90;;;;;;5026521;28;22046;-92
2022/11/26 02:06:39;;;;;;;34.83;11.82;;;4.60;99.90;;;;;;5023358;28;20074;-91
2022/11/26 02:09:06;;;;;;;36.72;12.73;;;4.60;99.90;;;;;;5025687;28;20029;-92
2022/11/26 02:11:32;;;;;;;33.50;13.70;;;4.50;99.90;;;;;;5023508;28;20092;-92
2022/11/26 02:14:03;;;;;;;36.17;13.55;;;4.50;99.90;;;;;;5023789;28;20123;-92
2022/11/26 02:16:53;;;;;;;32.45;12.18;;;4.50;99.90;;;;;;5042811;28;20033;-92
2022/11/26 02:19:32;;;;;;;35.45;13.25;;;4.50;99.90;;;;;;5038416;28;20025;-92
2022/11/26 02:22:22;;;;;;;37.22;13.02;;;4.50;99.90;;;;;;5044788;28;20513;-91
2022/11/26 02:25:00;;;;;;;34.35;12.85;;;4.50;99.90;;;;;;5046067;28;20112;-92
2022/11/26 02:27:48;;;;;;;37.90;13.65;;;4.60;99.90;;;;;;5025277;28;20044;-92
2022/11/26 02:30:16;;;;;;;32.90;12.68;;;4.60;99.90;;;;;;5046043;28;20422;-91
2022/11/26 02:32:58;;;;;;;35.63;13.55;;;4.50;99.90;;;;;;5027178;28;20743;-92
2022/11/26 02:35:40;;;;;;;40.63;14.07;;;4.50;99.90;;;;;;5048338;28;20095;-92
2022/11/26 02:38:11;;;;;;;31.35;13.13;;;4.50;99.90;;;;;;5030328;28;20041;-91
2022/11/26 02:40:37;;;;;;;45.53;13.65;;;4.50;99.90;;;;;;5045367;28;20056;-91
2022/11/26 02:43:03;;;;;;;41.58;13.30;;;4.40;99.90;;;;;;5029293;28;20478;-91
2022/11/26 02:45:36;;;;;;;44.83;15.07;;;4.40;99.90;;;;;;5030007;28;20021;-92
2022/11/26 02:48:07;;;;;;;41.00;13.90;;;4.40;99.90;;;;;;5046998;28;20458;-92
2022/11/26 02:50:41;;;;;;;37.53;14.80;;;4.40;99.90;;;;;;5042419;28;20044;-91
2022/11/26 02:53:09;;;;;;;31.20;14.85;;;4.50;99.90;;;;;;5029151;28;20120;-91
2022/11/26 02:55:38;;;;;;;43.03;15.40;;;4.50;99.90;;;;;;5030724;28;20033;-91
2022/11/26 02:58:05;;;;;;;37.83;14.25;;;4.50;99.90;;;;;;5042467;28;20107;-92
2022/11/26 03:00:32;;;;;;;40.83;14.00;;;4.50;99.90;;;;;;5041884;28;20077;-92
2022/11/26 03:03:04;;;;;;;40.22;15.20;;;4.50;99.90;;;;;;5041730;28;20117;-91
2022/11/26 03:05:33;;;;;;;35.33;14.40;;;4.50;99.90;;;;;;5024960;28;20025;-91
2022/11/26 03:08:01;;;;;;;45.40;14.88;;;4.50;99.90;;;;;;5027377;28;20025;-91
2022/11/26 03:10:29;;;;;;;44.05;15.43;;;4.50;99.90;;;;;;5023424;28;20071;-92
2022/11/26 03:12:55;;;;;;;47.13;15.98;;;4.50;99.90;;;;;;5024999;28;20029;-91
2022/11/26 03:15:21;;;;;;;42.67;15.35;;;4.50;99.90;;;;;;5022219;28;20699;-91
2022/11/26 03:17:47;;;;;;;36.78;15.25;;;4.50;99.90;;;;;;5018579;28;20418;-91
2022/11/26 03:20:13;;;;;;;39.53;16.85;;;4.50;99.90;;;;;;5026161;28;20037;-91
2022/11/26 03:22:38;;;;;;;45.83;15.82;;;4.50;99.90;;;;;;5027146;28;20032;-91
2022/11/26 03:25:05;;;;;;;40.28;15.32;;;4.50;99.90;;;;;;5028948;28;20032;-91
2022/11/26 03:27:30;;;;;;;42.03;15.63;;;4.50;99.90;;;;;;5022686;28;20025;-92
2022/11/26 03:29:56;;;;;;;39.15;16.23;;;4.50;99.90;;;;;;5024247;28;20040;-91
2022/11/26 03:32:22;;;;;;;41.90;14.85;;;4.50;99.90;;;;;;5027627;28;20028;-91
2022/11/26 03:34:47;;;;;;;35.15;14.73;;;4.50;99.90;;;;;;5025307;28;20041;-92
2022/11/26 03:37:13;;;;;;;46.53;15.65;;;4.50;99.90;;;;;;5027130;28;20017;-91
2022/11/26 03:39:39;;;;;;;45.08;16.15;;;4.50;99.90;;;;;;5029726;28;20168;-90
2022/11/26 03:42:05;;;;;;;43.75;16.08;;;4.50;99.90;;;;;;5029987;28;20065;-92
2022/11/26 03:44:31;;;;;;;38.33;15.43;;;4.50;99.90;;;;;;5029447;28;20075;-92
2022/11/26 03:46:56;;;;;;;36.78;15.93;;;4.50;99.90;;;;;;5027458;28;20097;-91
2022/11/26 03:49:22;;;;;;;46.97;15.68;;;4.50;99.90;;;;;;5024830;28;20043;-92
2022/11/26 03:51:47;;;;;;;47.92;14.77;;;4.50;99.90;;;;;;5027351;28;20029;-92
2022/11/26 03:54:13;;;;;;;35.60;15.77;;;4.50;99.90;;;;;;5028897;28;20474;-92
2022/11/26 03:56:39;;;;;;;39.97;15.63;;;4.50;99.90;;;;;;5025699;28;20021;-92
2022/11/26 03:59:04;;;;;;;47.45;16.00;;;4.50;99.90;;;;;;5026467;28;20028;-92
2022/11/26 04:01:30;;;;;;;54.38;18.52;;;4.40;99.90;;;;;;5026199;28;20103;-91
2022/11/26 04:03:55;;;;;;;38.58;15.77;;;4.50;99.90;;;;;;5028027;28;20119;-92
2022/11/26 04:06:21;;;;;;;47.10;17.58;;;4.40;99.90;;;;;;5025398;28;20444;-92
2022/11/26 04:08:46;;;;;;;39.40;15.40;;;4.50;99.90;;;;;;5027096;28;20082;-92
2022/11/26 04:11:13;;;;;;;49.10;16.83;;;4.40;99.90;;;;;;5028833;28;20032;-92
2022/11/26 04:13:38;;;;;;;35.85;16.23;;;4.50;99.90;;;;;;5025907;28;20116;-91
2022/11/26 04:16:04;;;;;;;37.38;15.93;;;4.40;99.90;;;;;;5026687;28;20116;-92
2022/11/26 04:18:30;;;;;;;38.60;16.73;;;4.40;99.90;;;;;;5026450;28;20017;-91
2022/11/26 04:20:55;;;;;;;46.70;16.55;;;4.40;99.90;;;;;;5025133;28;20021;-92
2022/11/26 04:23:21;;;;;;;37.75;15.95;;;4.40;99.90;;;;;;5029967;28;20143;-92
2022/11/26 04:25:47;;;;;;;44.08;16.20;;;4.30;99.90;;;;;;5029029;28;20770;-91
2022/11/26 04:28:13;;;;;;;45.35;16.25;;;4.30;99.90;;;;;;5027171;28;20021;-92
2022/11/26 04:30:40;;;;;;;43.28;16.92;;;4.30;99.90;;;;;;5022885;28;20046;-91
2022/11/26 04:33:05;;;;;;;49.17;16.17;;;4.30;99.90;;;;;;5024201;28;20052;-91
2022/11/26 04:35:31;;;;;;;40.60;16.30;;;4.30;99.90;;;;;;5024126;28;20060;-92
2022/11/26 04:37:56;;;;;;;43.10;16.83;;;4.30;99.90;;;;;;5024615;28;20041;-91
2022/11/26 04:40:22;;;;;;;38.50;16.48;;;4.20;99.90;;;;;;5026380;28;20037;-93
2022/11/26 04:42:48;;;;;;;41.25;16.10;;;4.20;99.90;;;;;;5025192;28;20032;-92
2022/11/26 04:45:13;;;;;;;43.42;17.83;;;4.10;99.90;;;;;;5032614;28;20108;-92
2022/11/26 04:47:39;;;;;;;40.13;17.58;;;4.10;99.90;;;;;;5043519;28;20052;-92
2022/11/26 04:50:05;;;;;;;39.42;15.25;;;4.10;99.90;;;;;;5040026;28;20416;-92
2022/11/26 04:52:30;;;;;;;43.20;16.63;;;4.10;99.90;;;;;;5043402;28;20052;-92
2022/11/26 04:54:56;;;;;;;40.45;16.55;;;4.10;99.90;;;;;;5046425;28;20072;-92
2022/11/26 04:57:21;;;;;;;43.17;16.98;;;4.10;99.90;;;;;;5031336;28;20029;-91
2022/11/26 04:59:47;;;;;;;37.08;17.08;;;4.10;99.90;;;;;;5024987;28;20410;-92
2022/11/26 05:02:13;;;;;;;37.17;16.05;;;4.10;99.90;;;;;;5026611;28;20060;-92
2022/11/26 05:04:38;;;;;;;35.33;16.08;;;4.10;99.90;;;;;;5026590;28;21406;-90
2022/11/26 05:07:04;;;;;;;45.60;15.57;;;4.10;99.90;;;;;;5028849;28;20497;-91
2022/11/26 05:09:29;;;;;;;42.67;16.10;;;4.10;99.90;;;;;;5022304;28;20119;-92
2022/11/26 05:11:55;;;;;;;43.92;16.17;;;4.10;99.90;;;;;;5023150;28;20029;-92
2022/11/26 05:14:21;;;;;;;42.05;16.92;;;4.00;99.90;;;;;;5023760;28;20074;-92
2022/11/26 05:16:46;;;;;;;43.55;16.88;;;4.00;99.90;;;;;;5023833;28;20025;-92
2022/11/26 05:19:12;;;;;;;46.90;17.00;;;4.00;99.90;;;;;;5022310;28;20490;-91
2022/11/26 05:21:37;;;;;;;37.85;16.95;;;4.00;99.90;;;;;;5025773;28;20028;-92
2022/11/26 05:24:03;;;;;;;45.30;16.40;;;4.00;99.90;;;;;;5023093;28;20040;-92
2022/11/26 05:26:29;;;;;;;48.35;17.65;;;4.00;99.90;;;;;;5026182;28;20174;-92
2022/11/26 05:28:54;;;;;;;51.72;18.45;;;4.00;99.90;;;;;;5024064;28;20032;-92
2022/11/26 05:31:20;;;;;;;39.35;16.45;;;4.00;99.90;;;;;;5025502;28;20048;-92
2022/11/26 05:33:45;;;;;;;56.17;17.83;;;4.00;99.90;;;;;;5037289;28;20112;-91
2022/11/26 05:36:11;;;;;;;45.72;19.58;;;3.90;99.90;;;;;;5026619;28;20029;-93
2022/11/26 05:38:36;;;;;;;47.38;17.95;;;3.90;99.90;;;;;;5024675;28;20101;-91
2022/11/26 05:41:02;;;;;;;43.78;17.48;;;3.90;99.90;;;;;;5026117;28;20032;-90
2022/11/26 05:43:27;;;;;;;53.70;18.73;;;3.90;99.90;;;;;;5025452;28;20024;-91
2022/11/26 05:45:54;;;;;;;44.60;16.95;;;3.90;99.90;;;;;;5026519;28;20049;-90
2022/11/26 05:48:20;;;;;;;47.28;16.88;;;3.80;99.90;;;;;;5036545;28;20080;-92
2022/11/26 05:50:45;;;;;;;42.30;17.35;;;3.80;99.90;;;;;;5035920;28;20036;-91
2022/11/26 05:53:11;;;;;;;41.47;16.50;;;3.80;99.90;;;;;;5031854;28;20029;-92
2022/11/26 05:55:37;;;;;;;40.45;17.10;;;3.80;99.90;;;;;;5027307;28;20025;-90
2022/11/26 05:58:02;;;;;;;50.83;17.48;;;3.80;99.90;;;;;;5024913;28;20029;-90
2022/11/26 06:00:28;;;;;;;59.03;18.95;;;3.90;99.90;;;;;;5024211;28;20111;-91
2022/11/26 06:02:54;;;;;;;46.22;17.15;;;3.90;99.90;;;;;;5022394;28;20032;-91
2022/11/26 06:05:20;;;;;;;46.78;16.90;;;3.90;99.90;;;;;;5026020;28;20035;-91
2022/11/26 06:07:46;;;;;;;46.50;16.90;;;3.90;99.90;;;;;;5028188;28;20064;-91
2022/11/26 06:10:12;;;;;;;48.67;17.65;;;3.90;99.90;;;;;;5023924;28;20030;-90
2022/11/26 06:12:38;;;;;;;51.35;17.20;;;3.80;99.90;;;;;;5038294;28;20037;-91
2022/11/26 06:15:04;;;;;;;36.88;16.20;;;3.90;99.90;;;;;;5055718;28;20028;-90
2022/11/26 06:17:29;;;;;;;39.33;16.15;;;3.90;99.90;;;;;;5040040;28;20547;-90
2022/11/26 06:19:55;;;;;;;39.53;15.63;;;3.80;99.90;;;;;;5031879;28;20029;-91
2022/11/26 06:22:20;;;;;;;45.05;16.35;;;3.80;99.90;;;;;;5032996;28;20021;-90
2022/11/26 06:24:46;;;;;;;42.72;16.55;;;3.80;99.90;;;;;;5032406;28;20021;-90
2022/11/26 06:27:11;;;;;;;48.13;15.15;;;3.80;99.90;;;;;;5035724;28;20024;-90
2022/11/26 06:29:37;;;;;;;48.67;17.00;;;3.80;99.90;;;;;;5041388;28;20120;-90
2022/11/26 06:32:02;;;;;;;42.97;16.15;;;3.80;99.90;;;;;;5028749;28;20376;-90
2022/11/26 06:34:28;;;;;;;47.42;16.85;;;3.80;99.90;;;;;;5023410;28;20029;-91
2022/11/26 06:36:53;;;;;;;36.25;14.85;;;3.80;99.90;;;;;;5037309;28;20026;-90
2022/11/26 06:39:19;;;;;;;47.58;15.45;;;3.70;99.90;;;;;;5028815;28;20131;-90
2022/11/26 06:41:45;;;;;;;55.92;16.73;;;3.70;99.90;;;;;;5019888;28;20021;-91
2022/11/26 06:44:10;;;;;;;54.22;16.98;;;3.70;99.90;;;;;;5012275;28;20025;-91
2022/11/26 06:46:36;;;;;;;43.28;15.77;;;3.80;99.90;;;;;;5012465;28;20112;-89
2022/11/26 06:49:03;;;;;;;38.53;15.55;;;3.80;99.90;;;;;;5008944;28;20064;-91
2022/11/26 06:51:29;;;;;;;49.58;16.17;;;3.80;99.90;;;;;;5014679;28;20108;-90
2022/11/26 06:53:54;;;;;;;42.45;17.50;;;3.80;99.90;;;;;;5017295;28;20018;-91
2022/11/26 06:56:20;;;;;;;45.33;19.00;;;3.80;99.90;;;;;;5017039;28;20052;-90
2022/11/26 06:58:47;;;;;;;52.97;19.25;;;3.80;99.90;;;;;;5017334;28;20028;-90
2022/11/26 07:01:19;;;;;;;44.17;19.02;;;3.90;99.90;;;;;;5017451;28;20041;-91
2022/11/26 07:03:45;;;;;;;49.65;20.17;;;3.80;99.90;;;;;;5015976;28;20309;-92
2022/11/26 07:06:16;;;;;;;52.63;21.20;;;3.90;99.90;;;;;;5014729;28;20128;-90
2022/11/26 07:08:41;;;;;;;51.67;18.83;;;3.90;99.90;;;;;;5015041;28;20033;-91
2022/11/26 07:11:07;;;;;;;45.72;16.58;;;4.00;99.90;;;;;;5008823;28;20049;-91
2022/11/26 07:13:32;;;;;;;47.92;16.98;;;4.00;99.90;;;;;;5017473;28;20025;-91
2022/11/26 07:16:05;;;;;;;44.47;15.65;;;4.00;99.90;;;;;;5022112;28;20064;-90
2022/11/26 07:18:30;;;;;;;;;;;4.10;99.90;;;;;;5012714;28;20025;-91
2022/11/26 07:20:57;;;;;;;43.40;14.00;;;4.00;99.90;;;;;;5013410;28;19928;-91
2022/11/26 07:23:22;;;;;;;44.13;13.25;;;4.10;99.90;;;;;;5010471;28;20411;-93
2022/11/26 07:25:48;;;;;;;36.47;11.88;;;4.10;99.90;;;;;;5010831;28;20037;-91
2022/11/26 07:28:20;;;;;;;47.08;15.00;;;4.10;99.90;;;;;;5010276;28;20052;-92
2022/11/26 07:30:45;;;;;;;46.72;16.23;;;4.20;99.90;;;;;;5020615;28;20045;-92
2022/11/26 07:33:11;;;;;;;43.95;14.88;;;4.20;99.90;;;;;;5013667;28;20061;-91
2022/11/26 07:35:37;;;;;;;44.05;15.00;;;4.20;99.90;;;;;;5013750;28;20038;-92
2022/11/26 07:38:02;;;;;;;35.65;13.48;;;4.20;99.90;;;;;;5012810;28;20037;-91
2022/11/26 07:40:28;;;;;;;43.45;14.43;;;4.20;99.90;;;;;;5023203;28;20036;-91
2022/11/26 07:42:54;;;;;;;36.53;14.23;;;4.20;99.90;;;;;;5020774;28;20029;-91
2022/11/26 07:45:25;;;;;;;38.70;13.88;;;4.30;99.90;;;;;;5021632;28;20025;-90
2022/11/26 07:47:52;;;;;;;41.88;15.93;;;4.30;99.90;;;;;;5020911;28;20026;-91
2022/11/26 07:50:28;;;;;;;42.67;16.30;;;4.30;99.90;;;;;;5014378;28;20045;-91
2022/11/26 07:52:54;;;;;;;36.33;14.02;;;4.30;99.90;;;;;;5017809;28;20104;-92
2022/11/26 07:55:20;;;;;;;40.85;13.70;;;4.40;99.90;;;;;;5018991;28;20064;-92
2022/11/26 07:57:55;;;;;;;48.25;15.88;;;4.40;99.90;;;;;;5007079;28;20036;-92
2022/11/26 08:00:28;;;;;;;44.97;15.45;;;4.50;99.90;;;;;;5014907;28;20030;-90
2022/11/26 08:02:54;;;;;;;43.95;14.63;;;4.50;99.90;;;;;;5010050;28;20018;-92
2022/11/26 08:05:19;;;;;;;38.47;14.52;;;4.50;99.90;;;;;;4998812;28;20037;-91
2022/11/26 08:07:45;;;;;;;44.65;16.50;;;4.50;99.90;;;;;;5014718;28;20030;-91
2022/11/26 08:10:11;;;;;;;44.53;15.82;;;4.60;99.90;;;;;;5022813;28;20037;-92
2022/11/26 08:12:40;;;;;;;48.42;16.15;;;4.70;99.90;;;;;;5018863;28;20040;-92
2022/11/26 08:15:06;;;;;;;38.75;15.45;;;4.70;99.90;;;;;;5009561;28;20018;-92
2022/11/26 08:17:32;;;;;;;43.47;16.48;;;4.80;99.90;;;;;;5009071;28;21766;-92
2022/11/26 08:19:57;;;;;;;46.92;15.95;;;4.80;99.90;;;;;;5007467;28;20061;-92
2022/11/26 08:22:23;;;;;;;42.40;16.92;;;4.80;99.90;;;;;;5008234;28;20060;-92
2022/11/26 08:24:49;;;;;;;47.53;17.67;;;4.90;99.90;;;;;;5007734;28;20030;-91
2022/11/26 08:27:14;;;;;;;45.83;17.00;;;5.00;99.90;;;;;;5013584;28;20479;-92
2022/11/26 08:29:40;;;;;;;53.05;20.15;;;5.10;99.90;;;;;;5009511;28;20036;-92
2022/11/26 08:32:06;;;;;;;43.08;18.63;;;5.20;99.90;;;;;;5002141;28;20117;-92
2022/11/26 08:34:32;;;;;;;55.17;21.00;;;5.20;99.90;;;;;;5007856;28;20544;-92
2022/11/26 08:36:58;;;;;;;43.58;19.42;;;5.30;99.90;;;;;;5013851;28;20049;-91
2022/11/26 08:39:24;;;;;;;55.65;20.17;;;5.40;99.90;;;;;;5035877;28;21038;-91
2022/11/26 08:41:49;;;;;;;46.10;18.13;;;5.50;99.90;;;;;;5032787;28;20389;-91
2022/11/26 08:44:15;;;;;;;44.72;19.10;;;5.60;99.90;;;;;;5029915;28;20032;-91
2022/11/26 08:46:41;;;;;;;43.67;18.48;;;5.60;99.90;;;;;;5025409;28;20021;-92
2022/11/26 08:49:09;;;;;;;47.90;19.27;;;5.70;99.90;;;;;;5033863;28;20470;-91
2022/11/26 08:51:35;;;;;;;48.45;18.70;;;5.70;99.90;;;;;;5028392;28;20037;-93
2022/11/26 08:54:01;;;;;;;45.03;19.05;;;5.80;99.90;;;;;;5026930;28;20018;-91
2022/11/26 08:56:26;;;;;;;48.15;17.77;;;5.90;99.90;;;;;;5022914;28;20029;-91
2022/11/26 08:59:02;;;;;;;40.10;18.05;;;5.90;99.90;;;;;;5030882;28;20039;-92
2022/11/26 09:01:31;;;;;;;41.95;17.08;;;6.00;99.90;;;;;;5032858;28;20036;-91
2022/11/26 09:03:59;;;;;;;49.42;18.42;;;6.00;99.90;;;;;;5025589;28;20017;-91
2022/11/26 09:06:27;;;;;;;48.65;18.83;;;6.10;99.90;;;;;;5046838;28;20068;-91
2022/11/26 09:09:11;;;;;;;38.53;18.33;;;6.10;99.90;;;;;;5030341;28;20136;-92
2022/11/26 09:11:47;;;;;;;42.42;16.98;;;6.20;99.90;;;;;;5041310;28;21567;-91
2022/11/26 09:14:15;;;;;;;46.03;18.40;;;6.20;99.90;;;;;;5024304;28;20086;-92
2022/11/26 09:16:41;;;;;;;44.60;18.65;;;6.20;99.90;;;;;;5024646;28;20039;-92
2022/11/26 09:19:07;;;;;;;49.42;18.85;;;6.30;99.90;;;;;;5030385;28;20461;-92
2022/11/26 09:21:34;;;;;;;38.22;16.50;;;6.30;99.90;;;;;;5022032;28;20478;-92
2022/11/26 09:24:00;;;;;;;45.05;17.75;;;6.30;99.90;;;;;;5027547;28;20466;-92
2022/11/26 09:26:25;;;;;;;43.25;17.00;;;6.40;99.90;;;;;;5025400;28;20033;-93
2022/11/26 09:28:51;;;;;;;49.58;18.52;;;6.40;99.90;;;;;;5021738;28;20051;-92
2022/11/26 09:31:17;;;;;;;39.33;16.75;;;6.50;99.90;;;;;;5037568;28;20045;-92
2022/11/26 09:33:44;;;;;;;43.53;17.42;;;6.50;99.90;;;;;;5030793;28;20032;-92
2022/11/26 09:36:12;;;;;;;45.10;16.02;;;6.60;99.90;;;;;;5023276;28;20032;-92
2022/11/26 09:38:38;;;;;;;32.35;15.10;;;6.60;99.90;;;;;;5028069;28;20045;-92
2022/11/26 09:41:31;;;;;;;37.95;15.05;;;6.60;99.90;;;;;;5021065;28;20033;-93
2022/11/26 09:44:15;;;;;;;35.65;14.80;;;6.70;99.90;;;;;;5025229;28;20120;-93
2022/11/26 09:47:19;;;;;;;35.20;14.90;;;6.80;99.90;;;;;;5025323;28;20037;-93
2022/11/26 09:50:19;;;;;;;39.63;15.05;;;6.80;99.90;;;;;;5020337;28;20036;-92
2022/11/26 09:52:53;;;;;;;36.55;13.23;;;6.90;99.90;;;;;;5020247;28;20029;-91
2022/11/26 09:55:23;;;;;;;40.55;14.60;;;6.90;99.90;;;;;;5023482;28;20031;-92
2022/11/26 09:57:55;;;;;;;42.13;15.32;;;7.00;99.90;;;;;;5026626;28;20036;-92
2022/11/26 10:00:33;;;;;;;38.13;14.18;;;7.10;99.90;;;;;;5020067;28;20028;-92
2022/11/26 10:02:59;;;;;;;35.65;14.02;;;7.10;99.90;;;;;;5023585;28;20025;-93
2022/11/26 10:05:51;;;;;;;46.90;15.07;;;7.20;99.90;;;;;;5030529;28;20055;-92
2022/11/26 10:08:54;;;;;;;42.95;13.60;;;7.20;99.90;;;;;;5014490;28;20047;-92
2022/11/26 10:11:27;;;;;;;40.55;12.20;;;7.20;99.90;;;;;;5027337;28;20491;-93
2022/11/26 10:14:23;;;;;;;40.90;14.25;;;7.30;99.90;;;;;;5024149;28;20032;-93
2022/11/26 10:17:26;;;;;;;34.50;12.85;;;7.40;99.90;;;;;;5025147;28;20026;-92
2022/11/26 10:20:13;;;;;;;44.67;12.48;;;7.40;99.90;;;;;;5019367;28;20029;-92
2022/11/26 10:22:48;;;;;;;33.63;12.07;;;7.50;99.90;;;;;;5027780;28;20041;-91
2022/11/26 10:25:18;;;;;;;32.17;12.80;;;7.50;99.90;;;;;;5022930;28;20033;-93
2022/11/26 10:27:44;;;;;;;45.65;14.23;;;7.50;99.90;;;;;;5026308;28;20032;-91
2022/11/26 10:30:27;;;;;;;38.92;15.15;;;7.60;99.90;;;;;;5027087;28;20030;-92
2022/11/26 10:32:54;;;;;;;45.97;14.30;;;7.60;99.90;;;;;;5019369;28;20112;-92
2022/11/26 10:35:23;;;;;;;39.40;13.43;;;7.70;99.90;;;;;;5028471;28;20036;-91
2022/11/26 10:37:50;;;;;;;34.92;13.50;;;7.80;99.90;;;;;;5027012;28;20025;-90
2022/11/26 10:40:30;;;;;;;44.38;14.68;;;7.80;99.90;;;;;;5032394;28;20129;-90
2022/11/26 10:43:02;;;;;;;39.25;13.43;;;7.80;99.90;;;;;;5027136;28;20021;-90
2022/11/26 10:45:36;;;;;;;35.17;12.43;;;7.80;99.90;;;;;;5021831;28;20036;-92
2022/11/26 10:48:23;;;;;;;43.47;13.43;;;7.80;99.90;;;;;;5025678;28;20261;-92
2022/11/26 10:51:17;;;;;;;30.58;12.05;;;7.90;99.90;;;;;;5031743;28;20041;-92
2022/11/26 10:53:50;;;;;;;31.85;12.60;;;7.90;99.90;;;;;;5035805;28;20135;-92
2022/11/26 10:56:19;;;;;;;28.70;11.75;;;8.00;99.90;;;;;;5028690;28;20116;-92
2022/11/26 10:58:48;;;;;;;40.15;12.65;;;8.00;99.90;;;;;;5053000;28;20367;-92
2022/11/26 11:01:14;;;;;;;23.40;10.73;;;8.10;99.90;;;;;;5037822;28;20076;-92
2022/11/26 11:03:53;;;;;;;35.15;12.25;;;8.10;99.90;;;;;;5041189;28;20030;-92
2022/11/26 11:06:19;;;;;;;29.05;12.32;;;8.20;99.90;;;;;;5050600;28;20033;-92
2022/11/26 11:08:46;;;;;;;38.78;12.40;;;8.20;99.90;;;;;;5058170;28;20103;-92
2022/11/26 11:11:23;;;;;;;39.28;12.88;;;8.20;99.90;;;;;;5047142;28;20037;-92
2022/11/26 11:13:49;;;;;;;38.92;12.40;;;8.30;99.90;;;;;;5038687;28;20108;-92
2022/11/26 11:16:23;;;;;;;36.17;13.23;;;8.30;99.90;;;;;;5030669;28;20120;-92
2022/11/26 11:19:01;;;;;;;33.45;13.02;;;8.40;99.90;;;;;;5041161;28;20029;-92
2022/11/26 11:21:34;;;;;;;29.92;12.18;;;8.50;99.90;;;;;;5038522;28;20029;-92
2022/11/26 11:24:16;;;;;;;26.60;12.38;;;8.60;99.90;;;;;;5037644;28;20111;-90
2022/11/26 11:26:52;;;;;;;;;;;8.70;99.90;;;;;;5036297;28;20030;-92
2022/11/26 11:29:37;;;;;;;33.78;12.48;;;8.80;99.90;;;;;;5036580;28;19959;-93
2022/11/26 11:32:05;;;;;;;29.60;11.57;;;9.00;99.90;;;;;;5032727;28;20061;-92
2022/11/26 11:34:32;;;;;;;31.08;11.35;;;9.10;99.90;;;;;;5039934;28;20040;-92
2022/11/26 11:37:22;;;;;;;32.03;11.38;;;9.20;99.90;;;;;;5038577;28;20029;-93
2022/11/26 11:40:13;;;;;;;33.05;11.13;;;9.40;99.90;;;;;;5019806;28;20053;-90
2022/11/26 11:42:39;;;;;;;33.78;11.52;;;9.50;99.90;;;;;;5034628;28;20025;-89
2022/11/26 11:45:20;;;;;;;35.83;11.40;;;9.50;99.90;;;;;;5035701;28;20478;-90
2022/11/26 11:47:51;;;;;;;32.28;10.93;;;9.60;99.90;;;;;;5037437;28;20116;-94
2022/11/26 11:50:32;;;;;;;34.42;11.40;;;9.70;99.90;;;;;;5036930;28;20030;-92
2022/11/26 11:53:06;;;;;;;36.05;10.15;;;9.80;99.90;;;;;;5019048;28;20021;-92
2022/11/26 11:55:59;;;;;;;32.70;10.13;;;9.90;99.90;;;;;;5029226;28;20376;-92
2022/11/26 11:58:47;;;;;;;27.30;10.13;;;9.90;99.90;;;;;;5054352;28;20049;-93
2022/11/26 12:01:27;;;;;;;25.52;9.40;;;10.00;99.90;;;;;;5031892;28;20032;-92
2022/11/26 12:04:24;;;;;;;20.58;8.65;;;10.10;99.90;;;;;;5040536;28;20060;-89
2022/11/26 12:07:14;;;;;;;25.67;8.98;;;10.00;99.90;;;;;;5055801;28;20033;-91
2022/11/26 12:10:19;;;;;;;32.25;9.55;;;10.10;99.90;;;;;;5038980;28;20042;-91
2022/11/26 12:12:48;;;;;;;23.70;8.40;;;10.10;99.90;;;;;;5027092;28;20505;-91
2022/11/26 12:15:22;;;;;;;31.27;8.82;;;10.10;99.90;;;;;;5038760;28;20025;-91
2022/11/26 12:18:23;;;;;;;31.60;9.45;;;10.20;99.90;;;;;;5037609;28;20055;-91
2022/11/26 12:20:51;;;;;;;24.52;7.50;;;10.20;99.90;;;;;;5024390;28;20017;-91
2022/11/26 12:23:29;;;;;;;26.92;8.25;;;10.20;99.90;;;;;;5020073;28;20045;-91
2022/11/26 12:26:08;;;;;;;24.42;6.90;;;10.30;99.90;;;;;;5024276;28;20028;-92
2022/11/26 12:28:47;;;;;;;29.42;7.32;;;10.30;99.90;;;;;;5019654;28;20033;-91
2022/11/26 12:31:27;;;;;;;22.00;6.60;;;10.40;99.90;;;;;;5036698;28;20044;-91
2022/11/26 12:34:01;;;;;;;34.03;7.65;;;10.50;99.90;;;;;;5055987;28;20025;-91
2022/11/26 12:36:51;;;;;;;28.42;7.68;;;10.50;99.90;;;;;;5040699;28;20040;-90
2022/11/26 12:39:45;;;;;;;27.08;6.90;;;10.60;99.90;;;;;;5054318;28;20048;-91
2022/11/26 12:42:29;;;;;;;21.98;6.68;;;10.70;99.90;;;;;;5029811;28;20036;-91
2022/11/26 12:45:10;;;;;;;25.17;6.43;;;10.70;99.90;;;;;;5035114;28;20025;-92
2022/11/26 12:47:41;;;;;;;24.73;6.28;;;10.80;99.90;;;;;;5051194;28;20072;-91
2022/11/26 12:50:41;;;;;;;17.73;5.65;;;10.70;99.90;;;;;;5028909;28;20162;-91
2022/11/26 12:53:17;;;;;;;18.67;5.20;;;10.70;99.90;;;;;;5021664;28;20041;-92
2022/11/26 12:56:17;;;;;;;21.73;5.80;;;10.60;99.90;;;;;;5030809;28;20081;-93